Time;durP1;ratioP1;P1;durP2;ratioP2;P2;SDS_P1;SDS_P2;PMS_P1;PMS_P2;Temp;Humidity;BMP_temperature;BMP_pressure;BME280_temperature;BME280_humidity;BME280_pressure;Samples;Min_cycle;Max_cycle;Signal;HPM_P1;HPM_P2
2022/11/11 00:00:15;;;;;;;6.97;5.03;;;26.60;99.90;;;;;;4973834;28;20046;-43
2022/11/11 00:02:41;;;;;;;7.22;4.88;;;26.60;99.90;;;;;;4973998;28;20496;-44
2022/11/11 00:05:07;;;;;;;7.43;4.90;;;26.60;99.90;;;;;;4973887;28;20050;-44
2022/11/11 00:07:32;;;;;;;6.82;4.90;;;26.60;99.90;;;;;;4973738;28;20101;-45
2022/11/11 00:09:58;;;;;;;6.00;4.63;;;26.60;99.90;;;;;;4972799;28;20356;-44
2022/11/11 00:12:24;;;;;;;6.80;4.60;;;26.50;99.90;;;;;;4973841;28;20039;-44
2022/11/11 00:14:50;;;;;;;7.38;4.85;;;26.50;99.90;;;;;;4973863;28;20026;-44
2022/11/11 00:25:27;;;;;;;6.47;4.72;;;26.50;99.90;;;;;;4977676;28;20033;-44
2022/11/11 00:27:53;;;;;;;6.70;4.50;;;26.50;99.90;;;;;;4977313;28;20023;-44
2022/11/11 00:30:19;;;;;;;5.85;4.28;;;26.50;99.90;;;;;;4977107;28;20455;-43
2022/11/11 00:32:45;;;;;;;5.93;4.22;;;26.50;99.90;;;;;;4977092;28;20030;-44
2022/11/11 00:38:06;;;;;;;7.15;4.40;;;26.40;99.90;;;;;;4977244;28;20494;-44
2022/11/11 00:40:32;;;;;;;5.78;4.22;;;26.40;99.90;;;;;;4976912;28;20031;-43
2022/11/11 00:42:58;;;;;;;6.47;4.57;;;26.40;99.90;;;;;;4976949;28;20098;-44
2022/11/11 00:45:23;;;;;;;7.90;4.53;;;26.40;99.90;;;;;;4977101;28;20033;-44
2022/11/11 00:53:23;;;;;;;6.43;4.72;;;26.40;99.90;;;;;;4977015;28;20487;-43
2022/11/11 00:55:49;;;;;;;6.93;4.13;;;26.40;99.90;;;;;;4976651;28;20015;-43
2022/11/11 00:58:18;;;;;;;5.55;4.30;;;26.40;99.90;;;;;;4976925;28;20471;-43
2022/11/11 01:00:44;;;;;;;4.88;3.53;;;26.40;99.90;;;;;;4977019;28;20129;-43
2022/11/11 01:03:09;;;;;;;7.50;3.90;;;26.30;99.90;;;;;;4976830;28;20504;-44
2022/11/11 01:05:38;;;;;;;5.32;4.00;;;26.30;99.90;;;;;;4976595;28;20026;-44
2022/11/11 01:08:05;;;;;;;6.13;4.00;;;26.30;99.90;;;;;;4976493;28;20479;-44
2022/11/11 01:10:37;;;;;;;6.28;4.13;;;26.30;99.90;;;;;;4976299;28;20035;-44
2022/11/11 01:13:13;;;;;;;5.38;3.75;;;26.30;99.90;;;;;;4976462;28;20041;-44
2022/11/11 01:15:40;;;;;;;5.65;3.90;;;26.30;99.90;;;;;;4976356;28;20031;-44
2022/11/11 01:18:07;;;;;;;6.13;3.70;;;26.30;99.90;;;;;;4976247;28;20041;-45
2022/11/11 01:20:33;;;;;;;5.70;3.67;;;26.30;99.90;;;;;;4976415;28;20155;-44
2022/11/11 01:22:58;;;;;;;5.10;3.50;;;26.20;99.90;;;;;;4976684;28;20691;-44
2022/11/11 01:25:24;;;;;;;4.78;3.78;;;26.20;99.90;;;;;;4976121;28;20027;-44
2022/11/11 01:27:50;;;;;;;6.45;3.63;;;26.20;99.90;;;;;;4976279;28;20033;-43
2022/11/11 01:30:16;;;;;;;5.43;3.53;;;26.20;99.90;;;;;;4976165;28;20372;-44
2022/11/11 01:32:41;;;;;;;5.40;3.47;;;26.20;99.90;;;;;;4975048;28;20034;-44
2022/11/11 01:35:07;;;;;;;4.55;3.28;;;26.20;99.90;;;;;;4975906;28;20027;-44
2022/11/11 01:37:34;;;;;;;5.03;3.58;;;26.20;99.90;;;;;;4974627;28;20037;-44
2022/11/11 01:40:00;;;;;;;4.15;2.95;;;26.20;99.90;;;;;;4976340;28;20053;-44
2022/11/11 01:42:26;;;;;;;3.97;3.20;;;26.10;99.90;;;;;;4990907;28;20038;-44
2022/11/11 01:44:51;;;;;;;5.05;3.55;;;26.10;99.90;;;;;;4976327;28;20399;-44
2022/11/11 01:47:18;;;;;;;5.13;3.33;;;26.10;99.90;;;;;;4976010;28;20025;-44
2022/11/11 01:49:49;;;;;;;4.67;3.30;;;26.10;99.90;;;;;;4990636;28;20059;-44
2022/11/11 01:52:25;;;;;;;4.75;3.10;;;26.10;99.90;;;;;;4975597;28;20041;-48
2022/11/11 01:55:02;;;;;;;5.10;3.28;;;26.10;99.90;;;;;;4975828;28;20022;-44
2022/11/11 01:57:33;;;;;;;;;;;26.10;99.90;;;;;;4991093;28;20027;-44
2022/11/11 02:00:09;;;;;;;5.10;3.63;;;26.10;99.90;;;;;;4988087;23;20020;-48
2022/11/11 02:02:59;;;;;;;3.10;2.65;;;26.00;99.90;;;;;;4975542;28;20027;-47
2022/11/11 02:05:42;;;;;;;4.45;3.10;;;26.00;99.90;;;;;;4975655;28;20023;-47
2022/11/11 02:08:33;;;;;;;3.53;2.70;;;26.00;99.90;;;;;;4975412;28;20027;-47
2022/11/11 02:11:01;;;;;;;4.35;2.88;;;26.00;99.90;;;;;;4974002;28;20104;-47
2022/11/11 02:16:12;;;;;;;5.13;3.03;;;26.00;99.90;;;;;;4975338;28;20077;-47
2022/11/11 02:18:37;;;;;;;3.30;2.65;;;26.00;99.90;;;;;;4975231;28;20043;-47
2022/11/11 02:21:03;;;;;;;3.90;2.25;;;26.00;99.90;;;;;;4974943;28;20114;-47
2022/11/11 02:23:45;;;;;;;3.88;2.65;;;26.00;99.90;;;;;;4975496;28;20030;-47
2022/11/11 02:26:14;;;;;;;4.05;2.65;;;25.90;99.90;;;;;;4973729;28;20027;-47
2022/11/11 02:28:41;;;;;;;4.97;3.40;;;25.90;99.90;;;;;;4974983;28;20110;-46
2022/11/11 02:31:08;;;;;;;3.70;2.97;;;25.90;99.90;;;;;;4974982;28;20535;-47
2022/11/11 02:33:34;;;;;;;4.78;2.35;;;25.90;99.90;;;;;;4975112;28;20435;-47
2022/11/11 02:36:01;;;;;;;3.95;2.47;;;25.90;99.90;;;;;;4975025;28;20022;-47
2022/11/11 02:38:29;;;;;;;4.30;2.65;;;25.90;99.90;;;;;;4974915;28;20101;-47
2022/11/11 02:43:39;;;;;;;4.72;1.88;;;25.90;99.90;;;;;;4974696;28;20041;-47
2022/11/11 02:46:06;;;;;;;3.95;2.45;;;25.90;99.90;;;;;;4974647;28;20101;-47
2022/11/11 02:48:32;;;;;;;3.08;2.40;;;25.90;99.90;;;;;;4974616;28;20189;-47
2022/11/11 02:50:58;;;;;;;4.50;2.70;;;25.80;99.90;;;;;;4974596;28;20403;-47
2022/11/11 02:53:24;;;;;;;5.53;2.33;;;25.80;99.90;;;;;;4974455;28;20035;-48
2022/11/11 02:55:49;;;;;;;3.30;2.20;;;25.80;99.90;;;;;;4974598;28;20023;-47
2022/11/11 02:58:16;;;;;;;2.47;2.00;;;25.80;99.90;;;;;;4974437;28;20387;-47
2022/11/11 03:00:42;;;;;;;3.40;2.33;;;25.80;99.90;;;;;;4973488;28;20054;-48
2022/11/11 03:03:09;;;;;;;4.68;2.10;;;25.80;99.90;;;;;;4974581;28;20019;-47
2022/11/11 03:05:35;;;;;;;2.88;2.13;;;25.80;99.90;;;;;;4974866;28;20372;-47
2022/11/11 03:08:01;;;;;;;2.88;2.17;;;25.80;99.90;;;;;;4974352;28;20038;-47
2022/11/11 03:10:27;;;;;;;3.25;2.40;;;25.80;99.90;;;;;;4974328;28;20027;-47
2022/11/11 03:12:53;;;;;;;3.00;2.30;;;25.80;99.90;;;;;;4974262;28;20027;-47
2022/11/11 03:15:19;;;;;;;2.63;1.95;;;25.70;99.90;;;;;;4974437;28;20023;-47
2022/11/11 03:17:44;;;;;;;3.00;2.30;;;25.70;99.90;;;;;;4974349;28;20482;-47
2022/11/11 03:23:01;;;;;;;2.97;2.15;;;25.70;99.90;;;;;;4974774;28;20029;-47
2022/11/11 03:25:36;;;;;;;3.88;2.50;;;25.70;99.90;;;;;;4974265;28;20423;-47
2022/11/11 03:28:12;;;;;;;3.05;2.00;;;25.70;99.90;;;;;;4974377;28;20106;-47
2022/11/11 03:30:40;;;;;;;4.35;2.33;;;25.70;99.90;;;;;;4972968;28;20034;-47
2022/11/11 03:33:07;;;;;;;2.85;2.10;;;25.70;99.90;;;;;;4974420;28;20367;-47
2022/11/11 03:35:33;;;;;;;4.00;1.67;;;25.70;99.90;;;;;;4974596;28;20023;-47
2022/11/11 03:40:44;;;;;;;4.60;2.22;;;25.70;99.90;;;;;;4974410;28;20505;-47
2022/11/11 03:43:12;;;;;;;2.50;1.92;;;25.70;99.90;;;;;;4974144;28;20101;-47
2022/11/11 03:45:38;;;;;;;6.65;2.65;;;25.70;99.90;;;;;;4974376;28;20027;-47
2022/11/11 03:48:04;;;;;;;8.52;2.50;;;25.70;99.90;;;;;;4974066;28;20030;-47
2022/11/11 03:50:30;;;;;;;3.65;2.50;;;25.70;99.90;;;;;;4974569;28;20077;-47
2022/11/11 03:52:56;;;;;;;5.47;2.75;;;25.70;99.90;;;;;;4974130;28;20026;-47
2022/11/11 03:55:22;;;;;;;3.25;2.13;;;25.60;99.90;;;;;;4974354;28;20102;-47
2022/11/11 03:57:48;;;;;;;3.70;1.92;;;25.60;99.90;;;;;;4976361;28;20085;-47
2022/11/11 04:00:16;;;;;;;3.55;1.83;;;25.60;99.90;;;;;;4997205;23;20058;-44
2022/11/11 04:11:05;;;;;;;4.18;2.35;;;25.60;99.90;;;;;;4997431;28;20097;-44
2022/11/11 04:16:16;;;;;;;3.83;1.80;;;25.60;99.90;;;;;;4997152;28;20029;-44
2022/11/11 04:21:42;;;;;;;3.67;2.00;;;25.60;99.90;;;;;;4996952;28;20049;-43
2022/11/11 04:26:59;;;;;;;5.57;2.25;;;25.60;99.90;;;;;;4996982;28;20092;-42
2022/11/11 04:29:28;;;;;;;4.47;2.20;;;25.60;99.90;;;;;;4996956;28;20018;-42
2022/11/11 04:34:51;;;;;;;3.35;2.00;;;25.50;99.90;;;;;;4996792;28;20426;-44
2022/11/11 04:37:18;;;;;;;7.22;2.30;;;25.50;99.90;;;;;;4978932;28;20491;-42
2022/11/11 04:42:29;;;;;;;4.63;2.28;;;25.50;99.90;;;;;;4996755;28;20080;-45
2022/11/11 04:47:59;;;;;;;3.10;2.00;;;25.50;99.90;;;;;;4981794;28;21080;-44
2022/11/11 04:50:31;;;;;;;3.67;1.80;;;25.50;99.90;;;;;;4996353;28;20072;-44
2022/11/11 04:52:57;;;;;;;5.30;2.10;;;25.50;99.90;;;;;;4996473;28;20030;-45
2022/11/11 04:58:08;;;;;;;4.43;1.85;;;25.50;99.90;;;;;;4996609;28;20575;-44
2022/11/11 05:00:34;;;;;;;4.00;2.00;;;25.50;99.90;;;;;;4996990;28;20047;-44
2022/11/11 05:03:16;;;;;;;3.15;2.03;;;25.40;99.90;;;;;;4996057;28;20105;-44
2022/11/11 05:08:57;;;;;;;4.53;1.73;;;25.40;99.90;;;;;;4996144;28;20054;-44
2022/11/11 05:11:28;;;;;;;7.82;3.28;;;25.40;99.90;;;;;;4996201;28;20142;-45
2022/11/11 05:22:23;;;;;;;4.40;1.73;;;25.40;99.90;;;;;;4995700;28;20123;-44
2022/11/11 05:27:34;;;;;;;3.40;2.40;;;25.40;99.90;;;;;;4996005;28;20069;-45
2022/11/11 05:30:01;;;;;;;4.40;2.17;;;25.40;99.90;;;;;;4995713;28;20022;-45
2022/11/11 05:32:26;;;;;;;6.22;2.55;;;25.30;99.90;;;;;;4995493;28;20085;-45
2022/11/11 05:34:53;;;;;;;3.90;1.95;;;25.30;99.90;;;;;;4995596;28;20030;-45
2022/11/11 05:37:19;;;;;;;2.97;1.95;;;25.30;99.90;;;;;;4995550;28;20113;-45
2022/11/11 05:39:45;;;;;;;2.72;1.80;;;25.30;99.90;;;;;;4995390;28;20109;-44
2022/11/11 05:42:11;;;;;;;4.90;2.03;;;25.30;99.90;;;;;;4995442;28;20077;-45
2022/11/11 05:44:37;;;;;;;4.10;2.33;;;25.30;99.90;;;;;;4995311;28;20471;-45
2022/11/11 05:47:03;;;;;;;4.10;1.77;;;25.30;99.90;;;;;;4995281;28;20085;-45
2022/11/11 05:49:28;;;;;;;3.42;1.85;;;25.30;99.90;;;;;;4995108;28;20022;-45
2022/11/11 05:51:55;;;;;;;3.10;1.90;;;25.30;99.90;;;;;;4995015;28;20054;-45
2022/11/11 05:54:22;;;;;;;3.50;1.92;;;25.30;99.90;;;;;;4995241;28;20018;-45
2022/11/11 05:56:47;;;;;;;10.50;2.38;;;25.30;99.90;;;;;;4993694;28;20034;-43
2022/11/11 05:59:13;;;;;;;2.35;1.60;;;25.30;99.90;;;;;;4994990;28;20027;-45
2022/11/11 06:01:39;;;;;;;5.07;1.80;;;25.30;99.90;;;;;;4994806;28;20055;-44
2022/11/11 06:04:06;;;;;;;6.05;2.53;;;25.30;99.90;;;;;;4993553;28;20022;-44
2022/11/11 06:06:33;;;;;;;4.70;1.98;;;25.30;99.90;;;;;;4994969;28;20113;-43
2022/11/11 06:08:59;;;;;;;2.83;1.67;;;25.30;99.90;;;;;;4994736;28;20022;-43
2022/11/11 06:11:26;;;;;;;3.92;1.90;;;25.30;99.90;;;;;;4994735;28;20045;-43
2022/11/11 06:13:53;;;;;;;6.10;2.30;;;25.30;99.90;;;;;;4994747;28;20049;-43
2022/11/11 06:16:19;;;;;;;4.07;1.90;;;25.20;99.90;;;;;;4994709;28;20034;-44
2022/11/11 06:18:45;;;;;;;4.68;2.15;;;25.20;99.90;;;;;;4992907;28;20023;-44
2022/11/11 06:21:11;;;;;;;4.28;2.28;;;25.20;99.90;;;;;;4994504;28;20027;-44
2022/11/11 06:23:36;;;;;;;4.38;1.55;;;25.20;99.90;;;;;;4994745;28;20030;-44
2022/11/11 06:26:12;;;;;;;4.25;1.90;;;25.20;99.90;;;;;;4994698;28;20026;-44
2022/11/11 06:28:49;;;;;;;3.65;1.63;;;25.20;99.90;;;;;;4994505;28;20105;-44
2022/11/11 06:31:33;;;;;;;3.88;1.90;;;25.20;99.90;;;;;;4977113;28;20435;-43
2022/11/11 06:33:58;;;;;;;4.88;1.80;;;25.20;99.90;;;;;;4994450;28;20375;-44
2022/11/11 06:36:24;;;;;;;6.82;1.92;;;25.20;99.90;;;;;;4994276;28;20045;-44
2022/11/11 06:38:50;;;;;;;3.50;1.67;;;25.20;99.90;;;;;;4994332;28;20018;-43
2022/11/11 06:41:16;;;;;;;5.53;2.38;;;25.20;99.90;;;;;;4994285;28;20490;-44
2022/11/11 06:43:42;;;;;;;4.38;2.03;;;25.20;99.90;;;;;;4994156;28;20054;-43
2022/11/11 06:46:22;;;;;;;3.55;1.80;;;25.10;99.90;;;;;;4994123;28;20026;-43
2022/11/11 06:48:49;;;;;;;3.40;2.05;;;25.10;99.90;;;;;;4994207;28;20467;-43
2022/11/11 06:51:15;;;;;;;5.10;2.30;;;25.10;99.90;;;;;;4994065;28;20049;-44
2022/11/11 06:53:42;;;;;;;3.30;2.15;;;25.10;99.90;;;;;;4994032;28;20027;-44
2022/11/11 06:56:08;;;;;;;5.75;2.45;;;25.10;99.90;;;;;;4994198;28;20113;-44
2022/11/11 06:58:34;;;;;;;3.83;1.58;;;25.10;99.90;;;;;;4994049;28;20058;-47
2022/11/11 07:01:06;;;;;;;3.63;1.90;;;25.10;99.90;;;;;;4993982;28;20519;-44
2022/11/11 07:03:33;;;;;;;3.65;1.95;;;25.10;99.90;;;;;;4993980;28;20385;-44
2022/11/11 07:06:03;;;;;;;3.65;1.92;;;25.10;99.90;;;;;;4994224;28;20042;-44
2022/11/11 07:08:29;;;;;;;4.88;1.98;;;25.10;99.90;;;;;;4993858;28;20019;-44
2022/11/11 07:10:55;;;;;;;3.15;2.00;;;25.10;99.90;;;;;;4994147;28;20401;-45
2022/11/11 07:13:20;;;;;;;3.78;1.80;;;25.10;99.90;;;;;;4993857;28;20027;-44
2022/11/11 07:15:47;;;;;;;6.43;1.90;;;25.10;99.90;;;;;;4994039;28;20141;-44
2022/11/11 07:18:12;;;;;;;4.25;2.00;;;25.10;99.90;;;;;;4993795;28;20033;-44
2022/11/11 07:20:39;;;;;;;3.75;1.90;;;25.10;99.90;;;;;;4993867;28;20026;-44
2022/11/11 07:23:05;;;;;;;3.95;2.03;;;25.10;99.90;;;;;;4993538;28;20062;-44
2022/11/11 07:25:30;;;;;;;3.45;2.30;;;25.10;99.90;;;;;;4993638;28;20034;-44
2022/11/11 07:27:56;;;;;;;4.75;2.38;;;25.10;99.90;;;;;;4993820;28;20029;-44
2022/11/11 07:30:22;;;;;;;4.28;2.13;;;25.10;99.90;;;;;;4995100;28;20037;-44
2022/11/11 07:32:50;;;;;;;6.45;2.38;;;25.20;99.90;;;;;;4997596;28;20422;-44
2022/11/11 07:35:16;;;;;;;6.30;2.88;;;25.20;99.90;;;;;;4997654;28;20030;-44
2022/11/11 07:37:43;;;;;;;5.72;2.85;;;25.20;99.90;;;;;;4997495;28;20038;-44
2022/11/11 07:40:11;;;;;;;5.47;2.78;;;25.20;99.90;;;;;;4997461;28;20027;-43
2022/11/11 07:42:41;;;;;;;4.25;2.83;;;25.30;99.90;;;;;;4979946;28;20035;-44
2022/11/11 07:45:08;;;;;;;4.93;2.72;;;25.30;99.90;;;;;;4997375;28;20504;-44
2022/11/11 07:47:35;;;;;;;5.82;2.60;;;25.30;99.90;;;;;;4997501;28;20072;-44
2022/11/11 07:50:05;;;;;;;5.78;2.63;;;25.30;99.90;;;;;;4997475;28;20081;-44
2022/11/11 07:52:31;;;;;;;3.63;2.38;;;25.30;99.90;;;;;;4997404;28;20129;-44
2022/11/11 07:54:57;;;;;;;4.03;2.92;;;25.40;99.90;;;;;;4997369;28;20097;-44
2022/11/11 07:57:23;;;;;;;6.38;2.42;;;25.40;99.90;;;;;;4997117;28;20048;-44
2022/11/11 07:59:49;;;;;;;7.47;2.85;;;25.40;99.90;;;;;;4997173;28;20053;-44
2022/11/11 08:02:15;;;;;;;4.95;2.67;;;25.50;99.90;;;;;;4997298;28;20035;-44
2022/11/11 08:04:41;;;;;;;4.65;2.67;;;25.50;99.90;;;;;;4997002;28;20023;-44
2022/11/11 08:07:07;;;;;;;5.00;2.50;;;25.50;99.90;;;;;;4979777;28;20037;-44
2022/11/11 08:09:33;;;;;;;3.85;2.33;;;25.50;99.90;;;;;;4979666;28;20034;-44
2022/11/11 08:14:43;;;;;;;4.22;2.60;;;25.60;99.90;;;;;;4997261;28;20037;-44
2022/11/11 08:17:08;;;;;;;5.35;3.38;;;25.60;99.90;;;;;;4979197;28;20109;-44
2022/11/11 08:19:34;;;;;;;5.45;2.67;;;25.60;99.90;;;;;;4996938;28;20027;-44
2022/11/11 08:22:00;;;;;;;3.95;2.30;;;25.60;99.90;;;;;;4979532;28;20483;-44
2022/11/11 08:24:26;;;;;;;4.05;2.38;;;25.70;99.90;;;;;;4996896;28;20031;-45
2022/11/11 08:26:52;;;;;;;4.47;2.47;;;25.70;99.90;;;;;;4996948;28;20027;-45
2022/11/11 08:29:18;;;;;;;6.35;2.83;;;25.70;99.90;;;;;;4979213;28;20387;-44
2022/11/11 08:31:44;;;;;;;5.13;2.72;;;25.70;99.90;;;;;;4996433;28;20097;-45
2022/11/11 08:34:10;;;;;;;3.17;2.08;;;25.70;99.90;;;;;;4996837;28;20023;-45
2022/11/11 08:36:35;;;;;;;5.82;2.75;;;25.80;99.90;;;;;;4996766;28;20048;-45
2022/11/11 08:39:01;;;;;;;4.85;2.65;;;25.80;99.90;;;;;;4979042;28;20050;-44
2022/11/11 08:41:27;;;;;;;6.63;2.55;;;25.80;99.90;;;;;;4996203;28;20109;-44
2022/11/11 08:43:54;;;;;;;6.05;2.67;;;25.80;99.90;;;;;;4978818;28;20042;-44
2022/11/11 08:46:20;;;;;;;5.35;2.55;;;25.80;99.90;;;;;;4996145;28;20026;-44
2022/11/11 08:48:46;;;;;;;6.47;2.88;;;25.90;99.90;;;;;;4995060;28;20105;-44
2022/11/11 08:51:13;;;;;;;4.53;2.53;;;25.90;99.90;;;;;;4996259;28;20114;-44
2022/11/11 08:53:39;;;;;;;4.68;2.33;;;25.90;99.90;;;;;;4996204;28;20030;-44
2022/11/11 08:56:05;;;;;;;6.13;2.88;;;26.00;99.90;;;;;;4996068;28;20033;-45
2022/11/11 08:58:31;;;;;;;4.60;2.13;;;26.00;99.90;;;;;;4996023;28;20022;-45
2022/11/11 09:00:57;;;;;;;4.80;2.58;;;26.00;99.90;;;;;;4995868;28;20085;-45
2022/11/11 09:03:23;;;;;;;5.38;2.83;;;26.00;99.90;;;;;;4978408;28;20027;-43
2022/11/11 09:05:49;;;;;;;6.35;2.58;;;26.00;99.90;;;;;;4978628;28;20545;-43
2022/11/11 09:08:15;;;;;;;6.18;2.75;;;26.10;99.90;;;;;;4995992;28;20466;-43
2022/11/11 09:10:41;;;;;;;4.78;2.83;;;26.10;99.90;;;;;;4995797;28;20068;-43
2022/11/11 09:13:06;;;;;;;4.50;2.78;;;26.20;99.90;;;;;;4995698;28;20390;-43
2022/11/11 09:15:33;;;;;;;6.68;2.75;;;26.20;99.90;;;;;;4995893;28;20018;-43
2022/11/11 09:18:00;;;;;;;4.32;2.70;;;26.20;99.90;;;;;;4995945;28;20029;-43
2022/11/11 09:20:26;;;;;;;6.60;2.42;;;26.20;99.90;;;;;;4995723;28;20323;-43
2022/11/11 09:22:52;;;;;;;4.45;2.40;;;26.30;99.90;;;;;;4995530;28;20035;-43
2022/11/11 09:25:18;;;;;;;4.40;2.38;;;26.30;99.90;;;;;;4995791;28;20034;-44
2022/11/11 09:27:52;;;;;;;5.57;2.53;;;26.30;99.90;;;;;;4995537;28;20027;-44
2022/11/11 09:30:18;;;;;;;5.07;2.35;;;26.30;99.90;;;;;;4995605;28;20026;-44
2022/11/11 09:32:43;;;;;;;7.72;2.72;;;26.30;99.90;;;;;;4977782;28;20419;-44
2022/11/11 09:35:09;;;;;;;5.05;2.83;;;26.40;99.90;;;;;;4995461;28;20022;-43
2022/11/11 09:37:35;;;;;;;5.50;3.15;;;26.40;99.90;;;;;;4978045;28;20033;-44
2022/11/11 09:40:00;;;;;;;4.97;2.60;;;26.40;99.90;;;;;;4995462;28;20023;-44
2022/11/11 09:43:02;;;;;;;4.22;2.58;;;26.40;99.90;;;;;;4995316;28;20053;-44
2022/11/11 09:45:28;;;;;;;6.30;2.85;;;26.50;99.90;;;;;;4987189;28;20037;-43
2022/11/11 09:48:02;;;;;;;5.32;2.67;;;26.50;99.90;;;;;;4995302;28;20026;-43
2022/11/11 09:50:32;;;;;;;4.05;2.40;;;26.50;99.90;;;;;;4977522;28;20142;-43
2022/11/11 09:53:13;;;;;;;4.97;2.72;;;26.50;99.90;;;;;;4994502;28;20042;-44
2022/11/11 09:55:40;;;;;;;4.72;2.80;;;26.50;99.90;;;;;;4994771;28;20038;-44
2022/11/11 09:58:17;;;;;;;4.68;2.42;;;26.50;99.90;;;;;;4994865;28;20027;-44
2022/11/11 10:00:47;;;;;;;4.53;2.20;;;26.40;99.90;;;;;;4994679;28;20043;-44
2022/11/11 10:03:18;;;;;;;5.32;2.28;;;26.50;99.90;;;;;;4994773;28;20088;-43
2022/11/11 10:05:51;;;;;;;6.28;2.33;;;26.50;99.90;;;;;;4993633;28;20025;-44
2022/11/11 10:08:26;;;;;;;7.18;2.85;;;26.40;99.90;;;;;;4994630;28;20034;-44
2022/11/11 10:10:54;;;;;;;5.22;2.70;;;26.40;99.90;;;;;;4994639;28;20022;-43
2022/11/11 10:13:27;;;;;;;3.80;2.22;;;26.40;99.90;;;;;;4994787;28;20555;-44
2022/11/11 10:16:17;;;;;;;4.07;2.22;;;26.40;99.90;;;;;;4977193;28;20034;-44
2022/11/11 10:19:07;;;;;;;4.22;2.25;;;26.40;99.90;;;;;;4994498;28;20022;-44
2022/11/11 10:21:43;;;;;;;4.13;2.47;;;26.40;99.90;;;;;;4994410;28;20058;-44
2022/11/11 10:24:18;;;;;;;3.50;2.50;;;26.40;99.90;;;;;;4994310;28;20033;-44
2022/11/11 10:26:46;;;;;;;6.15;2.42;;;26.40;99.90;;;;;;4993052;28;20030;-45
2022/11/11 10:29:17;;;;;;;5.90;2.83;;;26.40;99.90;;;;;;4994442;28;20102;-45
2022/11/11 10:31:45;;;;;;;6.30;2.28;;;26.40;99.90;;;;;;4994261;28;20066;-44
2022/11/11 10:34:12;;;;;;;;;;;26.40;99.90;;;;;;4994680;28;20077;-44
2022/11/11 10:36:43;;;;;;;4.18;2.53;;;26.40;99.90;;;;;;4994372;28;19913;-45
2022/11/11 10:39:15;;;;;;;4.32;2.50;;;26.40;99.90;;;;;;4994240;28;20034;-44
2022/11/11 10:41:48;;;;;;;3.70;2.05;;;26.40;99.90;;;;;;4994185;28;20467;-44
2022/11/11 10:44:20;;;;;;;4.43;2.60;;;26.50;99.90;;;;;;4994032;28;20029;-45
2022/11/11 10:47:21;;;;;;;5.18;2.20;;;26.50;99.90;;;;;;4994036;28;20023;-44
2022/11/11 10:50:01;;;;;;;5.25;2.53;;;26.50;99.90;;;;;;4983668;28;20034;-44
2022/11/11 10:52:54;;;;;;;4.95;2.05;;;26.50;99.90;;;;;;4993869;28;20058;-44
2022/11/11 10:55:52;;;;;;;4.57;2.17;;;26.50;99.90;;;;;;4978063;28;20588;-44
2022/11/11 10:58:48;;;;;;;3.78;2.47;;;26.50;99.90;;;;;;4942523;28;20073;-44
2022/11/11 11:01:24;;;;;;;5.40;2.72;;;26.40;99.90;;;;;;4987486;28;20132;-44
2022/11/11 11:03:58;;;;;;;8.05;3.28;;;26.50;99.90;;;;;;4993952;28;20041;-45
2022/11/11 11:06:31;;;;;;;4.60;2.30;;;26.40;99.90;;;;;;4993643;28;20027;-43
2022/11/11 11:09:34;;;;;;;5.25;2.30;;;26.40;99.90;;;;;;4993896;28;20023;-44
2022/11/11 11:12:21;;;;;;;4.90;2.47;;;26.40;99.90;;;;;;4993686;28;20034;-43
2022/11/11 11:14:50;;;;;;;5.28;2.80;;;26.40;99.90;;;;;;4993810;28;20026;-43
2022/11/11 11:17:29;;;;;;;4.80;2.90;;;26.40;99.90;;;;;;4993592;28;20034;-44
2022/11/11 11:20:15;;;;;;;6.38;2.90;;;26.40;99.90;;;;;;4993806;28;20097;-44
2022/11/11 11:22:58;;;;;;;4.93;2.60;;;26.40;99.90;;;;;;4993904;28;20018;-43
2022/11/11 11:25:25;;;;;;;4.20;2.63;;;26.40;99.90;;;;;;4993607;28;20018;-47
2022/11/11 11:27:52;;;;;;;4.18;2.80;;;26.40;99.90;;;;;;4993617;28;20138;-44
2022/11/11 11:30:25;;;;;;;5.15;2.40;;;26.40;99.90;;;;;;4993586;28;20092;-44
2022/11/11 11:32:59;;;;;;;3.88;2.10;;;26.40;99.90;;;;;;4993442;28;20407;-44
2022/11/11 11:35:31;;;;;;;3.97;2.45;;;26.50;99.90;;;;;;4993546;28;20022;-44
2022/11/11 11:37:57;;;;;;;6.88;2.58;;;26.40;99.90;;;;;;4993635;28;20451;-44
2022/11/11 11:40:23;;;;;;;8.88;3.17;;;26.50;99.90;;;;;;4993588;28;20030;-44
2022/11/11 11:42:49;;;;;;;4.85;2.55;;;26.50;99.90;;;;;;4993681;28;20034;-44
2022/11/11 11:45:15;;;;;;;5.18;2.33;;;26.50;99.90;;;;;;4993378;28;20403;-44
2022/11/11 11:48:23;;;;;;;3.53;2.15;;;26.50;99.90;;;;;;4993703;28;20084;-44
2022/11/11 11:50:52;;;;;;;3.75;2.47;;;26.60;99.90;;;;;;4992785;28;20033;-44
2022/11/11 11:53:49;;;;;;;6.45;2.85;;;26.60;99.90;;;;;;4993480;28;20064;-44
2022/11/11 11:56:20;;;;;;;8.52;2.83;;;26.60;99.90;;;;;;4993273;28;20614;-44
2022/11/11 11:59:10;;;;;;;5.55;2.80;;;26.60;99.90;;;;;;4993312;28;20383;-44
2022/11/11 12:02:10;;;;;;;6.82;2.97;;;26.60;99.90;;;;;;4993210;28;20053;-44
2022/11/11 12:04:58;;;;;;;7.38;3.03;;;26.60;99.90;;;;;;4975831;28;20030;-44
2022/11/11 12:08:01;;;;;;;6.78;2.53;;;26.60;99.90;;;;;;4993216;28;20434;-44
2022/11/11 12:10:35;;;;;;;4.05;2.80;;;26.70;99.90;;;;;;4993032;28;20018;-45
2022/11/11 12:13:27;;;;;;;8.20;2.90;;;26.60;99.90;;;;;;4993305;28;20066;-44
2022/11/11 12:15:58;;;;;;;6.25;3.80;;;26.60;99.90;;;;;;4992087;28;20041;-44
2022/11/11 12:18:53;;;;;;;6.75;2.70;;;26.70;99.90;;;;;;4996400;28;20034;-44
2022/11/11 12:21:26;;;;;;;6.68;2.15;;;26.70;99.90;;;;;;4996830;28;20023;-44
2022/11/11 12:24:10;;;;;;;5.57;2.67;;;26.70;99.90;;;;;;4996773;28;20018;-45
2022/11/11 12:27:16;;;;;;;5.90;2.53;;;26.70;99.90;;;;;;4996583;28;20037;-44
2022/11/11 12:30:07;;;;;;;8.60;2.63;;;26.70;99.90;;;;;;4971165;28;20039;-44
2022/11/11 12:33:10;;;;;;;6.57;2.40;;;26.80;99.90;;;;;;4971650;28;20394;-45
2022/11/11 12:36:03;;;;;;;4.45;2.45;;;26.80;99.90;;;;;;4977848;28;20073;-44
2022/11/11 12:38:50;;;;;;;9.82;2.50;;;26.90;99.90;;;;;;4985521;28;20034;-44
2022/11/11 12:41:34;;;;;;;8.90;2.25;;;26.90;99.90;;;;;;4998124;28;20057;-45
2022/11/11 12:44:06;;;;;;;3.92;1.92;;;27.00;99.90;;;;;;4994683;28;20034;-44
2022/11/11 12:46:38;;;;;;;9.38;2.90;;;27.00;99.90;;;;;;4995509;28;20022;-44
2022/11/11 12:49:18;;;;;;;6.00;1.13;;;27.10;99.90;;;;;;4976388;28;20062;-44
2022/11/11 12:52:05;;;;;;;2.50;1.30;;;27.00;99.90;;;;;;4977904;28;20039;-46
2022/11/11 12:55:03;;;;;;;9.57;0.90;;;26.90;99.90;;;;;;4986668;28;20037;-45
2022/11/11 12:57:57;;;;;;;5.15;0.90;;;26.70;99.90;;;;;;4958235;28;20048;-45
2022/11/11 13:00:25;;;;;;;3.03;0.98;;;26.50;99.90;;;;;;4989721;28;20042;-45
2022/11/11 13:02:50;;;;;;;;;;;26.30;99.90;;;;;;4987618;28;20102;-45
2022/11/11 13:05:35;;;;;;;4.97;1.58;;;26.20;99.90;;;;;;4994932;28;20007;-44
2022/11/11 13:08:38;;;;;;;5.43;1.05;;;26.10;99.90;;;;;;4994728;28;20129;-44
2022/11/11 13:11:50;;;;;;;8.20;1.48;;;26.10;99.90;;;;;;4985411;28;20065;-47
2022/11/11 13:14:33;;;;;;;11.40;5.13;;;26.00;99.90;;;;;;4945248;29;20494;-43
2022/11/11 13:17:01;;;;;;;9.20;1.50;;;26.00;99.90;;;;;;4970953;28;20031;-44
2022/11/11 13:19:32;;;;;;;;;;;25.90;99.90;;;;;;4985140;28;20490;-43
2022/11/11 13:22:05;;;;;;;10.60;1.02;;;25.90;99.90;;;;;;4996258;28;19917;-44
2022/11/11 13:24:31;;;;;;;5.78;1.23;;;25.90;99.90;;;;;;4984241;28;20034;-44
2022/11/11 13:27:20;;;;;;;6.00;1.25;;;25.90;99.90;;;;;;4981907;28;20031;-44
2022/11/11 13:30:18;;;;;;;9.43;1.10;;;26.00;99.90;;;;;;4950388;28;20038;-44
2022/11/11 13:32:49;;;;;;;5.50;1.27;;;26.00;99.90;;;;;;4989848;28;20133;-43
2022/11/11 13:35:44;;;;;;;5.10;1.10;;;26.10;99.90;;;;;;4987933;28;20077;-43
2022/11/11 13:38:22;;;;;;;4.97;1.55;;;26.20;99.90;;;;;;4991768;28;20491;-44
2022/11/11 13:40:53;;;;;;;7.32;1.40;;;26.30;99.90;;;;;;4994846;28;20081;-44
2022/11/11 13:43:55;;;;;;;6.75;1.20;;;26.40;99.90;;;;;;4997067;28;20038;-43
2022/11/11 13:46:27;;;;;;;3.17;1.20;;;26.40;99.90;;;;;;4909358;29;20127;-43
2022/11/11 13:48:55;;;;;;;4.25;1.40;;;26.40;99.90;;;;;;4963063;28;20081;-43
2022/11/11 13:51:30;;;;;;;;;;;26.50;99.90;;;;;;4992408;28;20034;-43
2022/11/11 13:53:59;;;;;;;6.68;1.42;;;26.50;99.90;;;;;;4989814;28;20355;-44
2022/11/11 13:56:31;;;;;;;7.72;1.25;;;26.50;99.90;;;;;;4974751;28;20051;-44
2022/11/11 13:58:58;;;;;;;9.15;2.03;;;26.60;99.90;;;;;;4974753;28;20133;-45
2022/11/11 14:01:33;;;;;;;7.10;1.30;;;26.60;99.90;;;;;;4989703;28;20120;-47
2022/11/11 14:04:03;;;;;;;5.43;0.82;;;26.60;99.90;;;;;;4992856;28;21041;-45
2022/11/11 14:06:37;;;;;;;8.68;1.20;;;26.70;99.90;;;;;;4987284;28;20529;-45
2022/11/11 14:09:03;;;;;;;4.28;1.10;;;26.70;99.90;;;;;;4986416;28;20524;-45
2022/11/11 14:11:34;;;;;;;3.80;0.98;;;26.70;99.90;;;;;;4978501;28;20122;-45
2022/11/11 14:14:48;;;;;;;6.30;1.58;;;26.70;99.90;;;;;;4974787;28;20446;-45
2022/11/11 14:17:16;;;;;;;7.32;1.95;;;26.70;99.90;;;;;;4944835;28;20130;-46
2022/11/11 14:19:42;;;;;;;9.20;1.33;;;26.70;99.90;;;;;;4973644;28;20027;-46
2022/11/11 14:22:31;;;;;;;9.82;1.05;;;26.60;99.90;;;;;;4968015;28;20414;-45